Time;durP1;ratioP1;P1;durP2;ratioP2;P2;SDS_P1;SDS_P2;PMS_P1;PMS_P2;Temp;Humidity;BMP_temperature;BMP_pressure;BME280_temperature;BME280_humidity;BME280_pressure;Samples;Min_cycle;Max_cycle;Signal;HPM_P1;HPM_P2
2023/09/25 00:00:07;;;;;;;3.90;1.38;;;14.10;99.90;;;;;;4979645;28;20404;-35
2023/09/25 00:02:33;;;;;;;3.78;1.17;;;14.10;99.90;;;;;;4980131;28;20062;-34
2023/09/25 00:04:59;;;;;;;4.97;1.10;;;14.10;99.90;;;;;;4982049;28;20054;-34
2023/09/25 00:07:24;;;;;;;3.03;1.17;;;14.00;99.90;;;;;;4987560;28;20192;-34
2023/09/25 00:09:50;;;;;;;2.60;1.10;;;14.00;99.90;;;;;;4984302;28;20597;-34
2023/09/25 00:12:16;;;;;;;3.47;1.10;;;14.00;99.90;;;;;;4988163;28;20054;-35
2023/09/25 00:14:41;;;;;;;2.20;0.90;;;13.90;99.90;;;;;;4984080;28;20120;-34
2023/09/25 00:17:07;;;;;;;2.75;1.15;;;13.90;99.90;;;;;;4984165;28;20054;-34
2023/09/25 00:19:33;;;;;;;3.65;1.33;;;13.90;99.90;;;;;;4987501;28;20050;-34
2023/09/25 00:21:58;;;;;;;5.00;1.30;;;13.80;99.90;;;;;;4983963;28;20054;-34
2023/09/25 00:24:24;;;;;;;4.32;1.25;;;13.80;99.90;;;;;;4987803;28;20111;-35
2023/09/25 00:26:50;;;;;;;2.80;1.15;;;13.80;99.90;;;;;;4986436;28;20050;-34
2023/09/25 00:29:16;;;;;;;3.28;1.23;;;13.70;99.90;;;;;;4988472;28;20057;-35
2023/09/25 00:31:42;;;;;;;5.18;1.25;;;13.70;99.90;;;;;;4984441;28;20073;-34
2023/09/25 00:34:07;;;;;;;1.85;0.95;;;13.70;99.90;;;;;;4988178;28;20054;-35
2023/09/25 00:36:33;;;;;;;4.53;1.15;;;13.60;99.90;;;;;;4987117;28;20065;-34
2023/09/25 00:38:59;;;;;;;2.08;1.10;;;13.60;99.90;;;;;;4985806;28;20049;-34
2023/09/25 00:41:24;;;;;;;2.47;0.90;;;13.60;99.90;;;;;;4981426;28;20051;-35
2023/09/25 00:43:50;;;;;;;2.80;1.08;;;13.60;99.90;;;;;;4987216;28;20488;-34
2023/09/25 00:46:16;;;;;;;3.08;1.00;;;13.60;99.90;;;;;;4984866;28;20548;-35
2023/09/25 00:48:42;;;;;;;2.35;1.02;;;13.50;99.90;;;;;;4985491;28;20137;-35
2023/09/25 00:51:09;;;;;;;4.18;1.30;;;13.50;99.90;;;;;;4980720;28;20051;-34
2023/09/25 00:53:35;;;;;;;5.15;1.30;;;13.50;99.90;;;;;;4987786;28;20488;-35
2023/09/25 00:56:01;;;;;;;4.72;0.93;;;13.50;99.90;;;;;;4982613;28;20133;-34
2023/09/25 00:58:27;;;;;;;2.47;1.20;;;13.40;99.90;;;;;;4983616;28;20485;-34
2023/09/25 01:00:54;;;;;;;4.30;1.60;;;13.50;99.90;;;;;;4987103;28;20058;-34
2023/09/25 01:03:19;;;;;;;4.72;1.10;;;13.50;99.90;;;;;;4983920;28;20145;-35
2023/09/25 01:05:45;;;;;;;3.88;1.13;;;13.40;99.90;;;;;;4985367;28;20145;-35
2023/09/25 01:08:12;;;;;;;3.03;1.10;;;13.40;99.90;;;;;;4981158;28;20850;-34
2023/09/25 01:10:40;;;;;;;2.65;1.20;;;13.40;99.90;;;;;;4987209;28;20053;-39
2023/09/25 01:13:06;;;;;;;3.42;1.20;;;13.40;99.90;;;;;;4984647;28;20132;-34
2023/09/25 01:15:32;;;;;;;4.60;1.38;;;13.40;99.90;;;;;;4985418;28;20046;-34
2023/09/25 01:17:58;;;;;;;3.33;0.98;;;13.40;99.90;;;;;;4963306;28;20488;-35
2023/09/25 01:20:24;;;;;;;2.63;0.90;;;13.40;99.90;;;;;;4984113;28;20424;-34
2023/09/25 01:22:50;;;;;;;1.67;0.98;;;13.40;99.90;;;;;;4966275;28;20539;-34
2023/09/25 01:25:18;;;;;;;1.77;1.00;;;13.40;99.90;;;;;;4995018;28;20062;-34
2023/09/25 01:27:45;;;;;;;2.17;1.27;;;13.40;99.90;;;;;;4980904;28;20066;-34
2023/09/25 01:30:13;;;;;;;4.68;1.70;;;13.40;99.90;;;;;;4987322;28;20050;-35
2023/09/25 01:32:40;;;;;;;3.55;1.70;;;13.40;99.90;;;;;;4986006;28;20194;-35
2023/09/25 01:35:13;;;;;;;2.75;1.20;;;13.40;99.90;;;;;;4984028;28;20077;-34
2023/09/25 01:37:39;;;;;;;2.92;1.00;;;13.30;99.90;;;;;;4983570;28;20042;-35
2023/09/25 01:40:08;;;;;;;3.50;1.50;;;13.30;99.90;;;;;;4983653;28;20050;-34
2023/09/25 01:42:34;;;;;;;3.40;1.40;;;13.30;99.90;;;;;;4982460;28;20411;-35
2023/09/25 01:44:59;;;;;;;3.85;1.40;;;13.30;99.90;;;;;;4982873;28;20054;-34
2023/09/25 01:47:25;;;;;;;5.32;1.65;;;13.30;99.90;;;;;;4980301;28;20053;-35
2023/09/25 01:49:51;;;;;;;3.92;1.45;;;13.20;99.90;;;;;;4982352;28;20069;-35
2023/09/25 01:52:17;;;;;;;5.20;1.50;;;13.20;99.90;;;;;;4981693;28;20113;-34
2023/09/25 01:54:43;;;;;;;2.78;1.33;;;13.20;99.90;;;;;;4984121;28;20175;-34
2023/09/25 01:57:09;;;;;;;2.38;1.27;;;13.20;99.90;;;;;;4986036;28;20094;-34
2023/09/25 01:59:35;;;;;;;3.38;1.42;;;13.20;99.90;;;;;;4982006;28;20058;-35
2023/09/25 02:02:00;;;;;;;2.58;1.40;;;13.20;99.90;;;;;;4983299;28;20054;-34
2023/09/25 02:04:27;;;;;;;3.85;1.48;;;13.20;99.90;;;;;;4982321;28;20538;-34
2023/09/25 02:06:52;;;;;;;5.00;1.77;;;13.20;99.90;;;;;;4968243;28;20062;-35
2023/09/25 02:09:18;;;;;;;3.33;1.33;;;13.20;99.90;;;;;;4984299;28;20058;-34
2023/09/25 02:11:44;;;;;;;3.15;1.30;;;13.20;99.90;;;;;;4984617;28;20424;-34
2023/09/25 02:14:09;;;;;;;6.38;1.80;;;13.10;99.90;;;;;;4981880;28;20058;-34
2023/09/25 02:16:35;;;;;;;5.88;1.73;;;13.10;99.90;;;;;;4995225;28;20069;-34
2023/09/25 02:19:01;;;;;;;3.03;1.73;;;13.10;99.90;;;;;;4981863;28;20057;-34
2023/09/25 02:21:27;;;;;;;4.07;1.50;;;13.00;99.90;;;;;;5000644;28;20049;-35
2023/09/25 02:23:52;;;;;;;3.13;1.42;;;13.00;99.90;;;;;;4979861;28;20137;-34
2023/09/25 02:26:18;;;;;;;3.53;1.38;;;13.00;99.90;;;;;;4985700;28;20050;-35
2023/09/25 02:28:44;;;;;;;7.38;2.03;;;12.90;99.90;;;;;;4986085;28;20500;-34
2023/09/25 02:31:10;;;;;;;3.17;1.48;;;12.90;99.90;;;;;;4979558;28;20054;-35
2023/09/25 02:33:35;;;;;;;3.10;1.38;;;12.90;99.90;;;;;;4983364;28;20101;-33
2023/09/25 02:36:10;;;;;;;2.60;1.50;;;12.90;99.90;;;;;;4981688;28;20069;-34
2023/09/25 02:38:36;;;;;;;5.55;1.80;;;12.90;99.90;;;;;;4974268;28;20400;-34
2023/09/25 02:41:02;;;;;;;3.97;1.85;;;12.90;99.90;;;;;;4979724;28;20065;-34
2023/09/25 02:43:28;;;;;;;2.83;1.50;;;12.90;99.90;;;;;;4983402;28;20057;-35
2023/09/25 02:45:54;;;;;;;3.35;1.58;;;12.90;99.90;;;;;;4985125;28;20612;-34
2023/09/25 02:48:21;;;;;;;4.03;1.65;;;12.80;99.90;;;;;;4979113;28;20058;-35
2023/09/25 02:50:47;;;;;;;3.28;1.25;;;12.80;99.90;;;;;;4968303;28;20054;-34
2023/09/25 02:53:13;;;;;;;2.45;1.27;;;12.80;99.90;;;;;;4983172;28;20093;-35
2023/09/25 02:55:39;;;;;;;6.13;1.90;;;12.80;99.90;;;;;;4981740;28;20569;-34
2023/09/25 02:58:04;;;;;;;2.42;1.50;;;12.70;99.90;;;;;;4981725;28;20066;-34
2023/09/25 03:00:30;;;;;;;4.43;2.03;;;12.70;99.90;;;;;;4987541;28;20165;-34
2023/09/25 03:02:58;;;;;;;4.57;1.90;;;12.70;99.90;;;;;;4966616;28;20142;-34
2023/09/25 03:05:24;;;;;;;5.47;1.83;;;12.70;99.90;;;;;;4982426;28;20112;-35
2023/09/25 03:07:50;;;;;;;4.35;1.60;;;12.70;99.90;;;;;;4986001;28;20054;-35
2023/09/25 03:10:15;;;;;;;3.08;1.60;;;12.60;99.90;;;;;;4985907;28;20049;-34
2023/09/25 03:12:41;;;;;;;2.58;1.40;;;12.60;99.90;;;;;;4979201;28;20048;-34
2023/09/25 03:15:08;;;;;;;3.03;1.52;;;12.60;99.90;;;;;;4982679;28;20050;-34
2023/09/25 03:17:35;;;;;;;3.20;1.90;;;12.60;99.90;;;;;;4982909;28;20398;-34
2023/09/25 03:20:04;;;;;;;5.32;1.50;;;12.70;99.90;;;;;;4964255;28;20066;-34
2023/09/25 03:22:30;;;;;;;3.58;1.73;;;12.60;99.90;;;;;;4983140;28;20062;-34
2023/09/25 03:24:56;;;;;;;4.63;1.73;;;12.60;99.90;;;;;;4981577;28;20059;-34
2023/09/25 03:27:21;;;;;;;3.85;1.63;;;12.70;99.90;;;;;;4976466;28;20051;-34
2023/09/25 03:29:47;;;;;;;3.38;1.63;;;12.70;99.90;;;;;;4983281;28;20461;-34
2023/09/25 03:32:13;;;;;;;2.85;1.38;;;12.70;99.90;;;;;;4997342;28;20458;-34
2023/09/25 03:34:40;;;;;;;4.07;1.70;;;12.70;99.90;;;;;;4985655;28;20042;-35
2023/09/25 03:37:05;;;;;;;2.40;1.48;;;12.70;99.90;;;;;;4983566;28;20129;-34
2023/09/25 03:39:31;;;;;;;4.75;1.50;;;12.70;99.90;;;;;;4985087;28;20504;-34
2023/09/25 03:41:57;;;;;;;2.80;1.30;;;12.70;99.90;;;;;;4978007;28;20054;-34
2023/09/25 03:44:22;;;;;;;3.22;1.10;;;12.70;99.90;;;;;;4986983;28;20443;-35
2023/09/25 03:46:48;;;;;;;3.08;1.50;;;12.70;99.90;;;;;;4989197;28;20058;-34
2023/09/25 03:49:14;;;;;;;3.80;1.40;;;12.80;99.90;;;;;;4980988;28;20389;-34
2023/09/25 03:51:39;;;;;;;2.97;1.30;;;12.80;99.90;;;;;;4989966;28;20046;-35
2023/09/25 03:54:05;;;;;;;2.70;1.30;;;12.70;99.90;;;;;;4984675;28;20560;-34
2023/09/25 03:56:31;;;;;;;2.35;1.30;;;12.70;99.90;;;;;;4988317;28;20054;-34
2023/09/25 03:58:57;;;;;;;3.45;1.55;;;12.80;99.90;;;;;;4987442;28;20062;-34
2023/09/25 04:01:22;;;;;;;2.05;1.08;;;12.80;99.90;;;;;;4985760;28;20046;-35
2023/09/25 04:03:48;;;;;;;3.40;1.20;;;12.80;99.90;;;;;;4982897;28;20051;-35
2023/09/25 04:06:14;;;;;;;2.70;1.30;;;12.80;99.90;;;;;;4980511;28;20129;-34
2023/09/25 04:08:39;;;;;;;4.22;1.48;;;12.80;99.90;;;;;;4986083;28;20049;-34
2023/09/25 04:11:05;;;;;;;3.33;1.35;;;12.80;99.90;;;;;;4985070;28;20050;-34
2023/09/25 04:13:31;;;;;;;2.70;1.02;;;12.80;99.90;;;;;;4986347;28;20502;-34
2023/09/25 04:15:57;;;;;;;5.90;1.20;;;12.80;99.90;;;;;;4990309;28;20096;-34
2023/09/25 04:18:23;;;;;;;4.15;1.50;;;12.80;99.90;;;;;;4985484;28;20054;-34
2023/09/25 04:20:52;;;;;;;3.95;1.42;;;12.70;99.90;;;;;;4983443;28;20606;-35
2023/09/25 04:23:17;;;;;;;2.03;1.02;;;12.70;99.90;;;;;;4983085;28;20416;-34
2023/09/25 04:25:51;;;;;;;4.38;1.20;;;12.70;99.90;;;;;;4988913;28;20467;-34
2023/09/25 04:28:16;;;;;;;2.65;1.50;;;12.70;99.90;;;;;;4987105;28;20047;-34
2023/09/25 04:30:43;;;;;;;3.00;1.30;;;12.70;99.90;;;;;;4989138;28;20053;-33
2023/09/25 04:33:09;;;;;;;3.30;1.30;;;12.70;99.90;;;;;;4987761;28;20054;-34
2023/09/25 04:35:36;;;;;;;2.67;1.40;;;12.70;99.90;;;;;;4987924;28;20054;-34
2023/09/25 04:38:07;;;;;;;2.38;1.30;;;12.70;99.90;;;;;;4987541;28;20058;-35
2023/09/25 04:40:33;;;;;;;4.03;1.30;;;12.70;99.90;;;;;;4982717;28;20058;-34
2023/09/25 04:43:00;;;;;;;4.10;1.30;;;12.70;99.90;;;;;;4989180;28;20423;-34
2023/09/25 04:45:26;;;;;;;4.40;1.17;;;12.70;99.90;;;;;;4986355;28;20046;-34
2023/09/25 04:47:52;;;;;;;3.58;1.38;;;12.70;99.90;;;;;;4996168;28;20047;-34
2023/09/25 04:50:19;;;;;;;4.65;1.20;;;12.70;99.90;;;;;;4981916;28;20050;-34
2023/09/25 04:52:45;;;;;;;3.33;1.20;;;12.70;99.90;;;;;;4983848;28;20386;-34
2023/09/25 04:55:11;;;;;;;2.40;1.20;;;12.70;99.90;;;;;;4980894;28;20100;-34
2023/09/25 04:57:45;;;;;;;3.38;1.30;;;12.60;99.90;;;;;;4984125;28;20057;-34
2023/09/25 05:00:25;;;;;;;2.97;1.30;;;12.60;99.90;;;;;;4986267;28;20085;-34
2023/09/25 05:02:52;;;;;;;3.47;1.55;;;12.60;99.90;;;;;;4981207;28;20054;-34
2023/09/25 05:05:18;;;;;;;2.22;1.10;;;12.60;99.90;;;;;;4985463;28;20515;-34
2023/09/25 05:07:46;;;;;;;2.83;1.20;;;12.60;99.90;;;;;;4983241;28;20054;-34
2023/09/25 05:10:13;;;;;;;4.75;1.20;;;12.60;99.90;;;;;;4982286;28;20050;-34
2023/09/25 05:12:39;;;;;;;3.63;1.25;;;12.60;99.90;;;;;;4986049;28;20196;-34
2023/09/25 05:15:07;;;;;;;2.67;1.40;;;12.60;99.90;;;;;;4986703;28;20054;-34
2023/09/25 05:17:40;;;;;;;2.72;1.23;;;12.60;99.90;;;;;;4983002;28;20046;-34
2023/09/25 05:20:11;;;;;;;3.58;1.30;;;12.60;99.90;;;;;;4987440;28;20509;-34
2023/09/25 05:22:38;;;;;;;3.33;1.10;;;12.50;99.90;;;;;;4988905;28;20456;-34
2023/09/25 05:25:07;;;;;;;2.63;1.15;;;12.50;99.90;;;;;;4977728;28;20105;-35
2023/09/25 05:27:37;;;;;;;2.67;1.20;;;12.50;99.90;;;;;;4979685;28;20096;-34
2023/09/25 05:30:05;;;;;;;2.00;1.10;;;12.50;99.90;;;;;;4983383;28;20160;-34
2023/09/25 05:32:34;;;;;;;2.85;1.40;;;12.50;99.90;;;;;;4964963;28;20120;-34
2023/09/25 05:35:00;;;;;;;2.13;1.13;;;12.50;99.90;;;;;;4982603;28;20050;-34
2023/09/25 05:37:25;;;;;;;2.33;1.05;;;12.50;99.90;;;;;;4985473;28;20480;-34
2023/09/25 05:39:51;;;;;;;2.38;1.00;;;12.60;99.90;;;;;;4982727;28;20065;-34
2023/09/25 05:42:17;;;;;;;2.25;1.10;;;12.60;99.90;;;;;;4982916;28;20439;-35
2023/09/25 05:44:42;;;;;;;1.90;0.93;;;12.60;99.90;;;;;;4981127;28;20518;-34
2023/09/25 05:47:08;;;;;;;2.55;1.10;;;12.60;99.90;;;;;;4981060;28;20549;-34
2023/09/25 05:49:34;;;;;;;2.72;1.00;;;12.60;99.90;;;;;;4980839;28;20050;-34
2023/09/25 05:52:00;;;;;;;3.33;1.10;;;12.60;99.90;;;;;;4980294;28;20047;-35
2023/09/25 05:54:25;;;;;;;3.15;0.93;;;12.60;99.90;;;;;;4984322;28;20069;-35
2023/09/25 05:56:51;;;;;;;2.42;1.20;;;12.70;99.90;;;;;;4983978;28;20050;-33
2023/09/25 05:59:16;;;;;;;3.63;0.80;;;12.70;99.90;;;;;;4983493;28;20053;-34
2023/09/25 06:01:42;;;;;;;2.50;1.10;;;12.70;99.90;;;;;;4980164;28;20487;-33
2023/09/25 06:04:09;;;;;;;3.50;1.10;;;12.80;99.90;;;;;;4984248;28;20050;-33
2023/09/25 06:06:35;;;;;;;3.63;1.05;;;12.80;99.90;;;;;;4981643;28;20058;-33
2023/09/25 06:09:02;;;;;;;1.80;0.70;;;12.80;99.90;;;;;;4982402;28;20491;-33
2023/09/25 06:11:28;;;;;;;1.95;0.98;;;12.90;99.90;;;;;;4980664;28;20551;-33
2023/09/25 06:13:54;;;;;;;1.83;1.00;;;12.90;99.90;;;;;;4982870;28;20161;-34
2023/09/25 06:16:19;;;;;;;4.00;1.08;;;12.90;99.90;;;;;;4982026;28;20046;-34
2023/09/25 06:18:46;;;;;;;3.67;1.25;;;12.90;99.90;;;;;;4978502;28;20054;-34
2023/09/25 06:21:13;;;;;;;2.45;0.90;;;12.90;99.90;;;;;;4981368;28;20058;-34
2023/09/25 06:23:42;;;;;;;3.08;1.05;;;13.00;99.90;;;;;;4984134;28;20073;-34
2023/09/25 06:26:08;;;;;;;3.53;0.90;;;13.00;99.90;;;;;;4982360;28;20054;-34
2023/09/25 06:28:34;;;;;;;1.52;0.65;;;13.00;99.90;;;;;;4964958;28;20081;-33
2023/09/25 06:31:00;;;;;;;2.85;0.90;;;13.00;99.90;;;;;;4983257;28;20046;-34
2023/09/25 06:33:26;;;;;;;1.80;0.85;;;13.10;99.90;;;;;;4982242;28;20093;-34
2023/09/25 06:35:52;;;;;;;3.25;1.35;;;13.10;99.90;;;;;;4984772;28;20551;-34
2023/09/25 06:38:19;;;;;;;2.20;0.75;;;13.10;99.90;;;;;;4979935;28;20054;-34
2023/09/25 06:40:45;;;;;;;3.75;1.20;;;13.20;99.90;;;;;;4980007;28;20149;-34
2023/09/25 06:43:12;;;;;;;3.20;0.90;;;13.20;99.90;;;;;;4975531;28;20116;-34
2023/09/25 06:45:41;;;;;;;2.83;0.95;;;13.20;99.90;;;;;;4980427;28;20061;-34
2023/09/25 06:48:07;;;;;;;2.05;0.85;;;13.30;99.90;;;;;;4982486;28;20447;-34
2023/09/25 06:50:33;;;;;;;1.92;0.77;;;13.30;99.90;;;;;;4979834;28;20074;-34
2023/09/25 06:52:59;;;;;;;2.10;0.80;;;13.30;99.90;;;;;;4981240;28;20085;-34
2023/09/25 06:55:25;;;;;;;7.85;1.40;;;13.30;99.90;;;;;;4983264;28;20047;-34
2023/09/25 06:57:50;;;;;;;2.85;1.00;;;13.40;99.90;;;;;;4978742;28;20138;-34
2023/09/25 07:00:18;;;;;;;2.85;0.80;;;13.40;99.90;;;;;;4973773;28;20054;-34
2023/09/25 07:02:44;;;;;;;4.28;0.93;;;13.40;99.90;;;;;;4979911;28;20496;-34
2023/09/25 07:05:10;;;;;;;5.13;1.10;;;13.50;99.90;;;;;;4981232;28;20574;-34
2023/09/25 07:07:36;;;;;;;3.42;0.80;;;13.50;99.90;;;;;;4983589;28;20109;-33
2023/09/25 07:10:09;;;;;;;2.92;1.08;;;13.50;99.90;;;;;;4983705;28;20507;-34
2023/09/25 07:12:36;;;;;;;1.92;0.80;;;13.60;99.90;;;;;;4984244;28;20042;-35
2023/09/25 07:15:02;;;;;;;2.95;0.73;;;13.60;99.90;;;;;;4980345;28;20058;-34
2023/09/25 07:17:29;;;;;;;3.45;1.30;;;13.60;99.90;;;;;;4988840;28;20049;-34
2023/09/25 07:19:55;;;;;;;3.03;1.10;;;13.70;99.90;;;;;;4981536;28;20066;-34
2023/09/25 07:22:22;;;;;;;2.10;1.05;;;13.70;99.90;;;;;;4982910;28;20404;-34
2023/09/25 07:24:49;;;;;;;3.72;1.05;;;13.70;99.90;;;;;;4985067;28;20049;-35
2023/09/25 07:27:15;;;;;;;1.58;0.68;;;13.80;99.90;;;;;;4987171;28;20203;-33
2023/09/25 07:29:44;;;;;;;4.13;1.30;;;13.80;99.90;;;;;;4986881;28;20145;-34
2023/09/25 07:32:14;;;;;;;2.40;1.00;;;13.90;99.90;;;;;;4988258;28;20054;-34
2023/09/25 07:34:41;;;;;;;2.60;0.95;;;13.90;99.90;;;;;;4989359;28;20060;-35
2023/09/25 07:37:07;;;;;;;2.10;0.93;;;14.00;99.90;;;;;;4987882;28;20046;-34
2023/09/25 07:39:34;;;;;;;2.63;0.85;;;14.10;99.90;;;;;;4984599;28;20053;-34
2023/09/25 07:42:01;;;;;;;4.05;1.25;;;14.10;99.90;;;;;;4983677;28;20484;-34
2023/09/25 07:44:27;;;;;;;2.03;0.80;;;14.20;99.90;;;;;;4983192;28;20508;-35
2023/09/25 07:46:57;;;;;;;2.47;0.80;;;14.20;99.90;;;;;;4984916;28;20085;-34
2023/09/25 07:49:24;;;;;;;2.58;0.95;;;14.30;99.90;;;;;;4967370;28;20073;-34
2023/09/25 07:51:51;;;;;;;3.05;0.90;;;14.40;99.90;;;;;;4988316;28;20057;-34
2023/09/25 07:54:17;;;;;;;2.45;1.02;;;14.40;99.90;;;;;;4982387;28;20065;-34
2023/09/25 07:56:43;;;;;;;3.58;1.10;;;14.40;99.90;;;;;;4987054;28;20058;-35
2023/09/25 07:59:10;;;;;;;4.15;1.42;;;14.50;99.90;;;;;;4990272;28;20480;-34
2023/09/25 08:01:39;;;;;;;3.53;1.15;;;14.50;99.90;;;;;;4987947;28;20129;-34
2023/09/25 08:04:05;;;;;;;1.75;0.80;;;14.50;99.90;;;;;;4987241;28;20061;-34
2023/09/25 08:06:31;;;;;;;3.72;1.20;;;14.60;99.90;;;;;;4987296;28;20050;-34
2023/09/25 08:08:57;;;;;;;3.70;1.00;;;14.60;99.90;;;;;;4983936;28;20057;-34
2023/09/25 08:11:24;;;;;;;2.28;0.90;;;14.60;99.90;;;;;;4987224;28;20078;-35
2023/09/25 08:13:50;;;;;;;2.63;1.10;;;14.60;99.90;;;;;;4988922;28;20064;-34
2023/09/25 08:16:21;;;;;;;2.53;1.00;;;14.70;99.90;;;;;;4998314;28;20092;-34
2023/09/25 08:18:47;;;;;;;2.60;0.88;;;14.70;99.90;;;;;;4985801;28;20046;-34
2023/09/25 08:21:13;;;;;;;3.47;1.00;;;14.80;99.90;;;;;;4988139;28;20114;-34
2023/09/25 08:23:38;;;;;;;2.33;1.00;;;14.80;99.90;;;;;;4982747;28;20057;-45
2023/09/25 08:26:07;;;;;;;4.25;1.40;;;15.00;99.90;;;;;;4985785;28;20544;-34
2023/09/25 08:28:33;;;;;;;1.98;1.00;;;15.10;99.90;;;;;;4984663;28;20046;-34
2023/09/25 08:30:59;;;;;;;2.28;0.90;;;15.20;99.90;;;;;;4987375;28;20045;-34
2023/09/25 08:33:25;;;;;;;3.30;1.00;;;15.30;99.90;;;;;;4985967;28;20104;-34
2023/09/25 08:35:52;;;;;;;2.25;0.90;;;15.40;99.90;;;;;;4986016;28;20097;-34
2023/09/25 08:38:18;;;;;;;4.35;1.02;;;15.50;99.90;;;;;;4986388;28;20054;-35
2023/09/25 08:40:50;;;;;;;3.05;1.52;;;15.60;99.90;;;;;;4988182;28;20097;-35
2023/09/25 08:43:16;;;;;;;1.85;0.80;;;15.70;99.90;;;;;;4988185;28;20486;-34
2023/09/25 08:45:46;;;;;;;1.95;0.75;;;15.70;99.90;;;;;;4984207;28;20042;-35
2023/09/25 08:48:15;;;;;;;1.90;0.80;;;15.80;99.90;;;;;;4982701;28;20526;-35
2023/09/25 08:50:41;;;;;;;2.47;1.00;;;15.80;99.90;;;;;;4983560;28;20084;-35
2023/09/25 08:53:08;;;;;;;2.28;0.90;;;15.90;99.90;;;;;;4982246;28;20220;-34
2023/09/25 08:55:34;;;;;;;3.45;0.90;;;16.00;99.90;;;;;;4986698;28;20057;-34
2023/09/25 08:58:00;;;;;;;3.05;0.90;;;16.10;99.90;;;;;;4983583;28;20137;-35
2023/09/25 09:00:29;;;;;;;2.22;0.70;;;16.30;99.90;;;;;;4988676;28;20086;-35
2023/09/25 09:02:54;;;;;;;2.47;0.93;;;16.40;99.90;;;;;;4985537;28;20054;-35
2023/09/25 09:05:20;;;;;;;2.38;0.80;;;16.60;99.90;;;;;;4969880;28;20841;-34
2023/09/25 09:08:06;;;;;;;3.03;1.00;;;16.70;99.90;;;;;;4985100;28;20050;-34
2023/09/25 09:10:37;;;;;;;3.22;0.73;;;16.80;99.90;;;;;;4984151;28;20145;-34
2023/09/25 09:13:09;;;;;;;2.00;1.02;;;16.80;99.90;;;;;;4987903;28;20054;-34
2023/09/25 09:15:36;;;;;;;3.47;0.80;;;16.90;99.90;;;;;;4984285;28;20428;-34
2023/09/25 09:18:23;;;;;;;2.72;0.60;;;17.00;99.90;;;;;;4985404;28;20198;-34
2023/09/25 09:20:49;;;;;;;2.05;0.65;;;17.00;99.90;;;;;;4979701;28;20050;-34
2023/09/25 09:23:15;;;;;;;2.33;0.90;;;17.00;99.90;;;;;;4985375;28;20641;-35
2023/09/25 09:25:48;;;;;;;2.17;0.80;;;17.10;99.90;;;;;;4984258;28;20054;-35
2023/09/25 09:28:14;;;;;;;;;;;17.10;99.90;;;;;;4985416;28;20148;-34
2023/09/25 09:30:41;;;;;;;3.28;1.00;;;17.10;99.90;;;;;;4985726;28;20436;-35
2023/09/25 09:33:08;;;;;;;2.67;0.93;;;17.20;99.90;;;;;;4985138;28;20058;-35
2023/09/25 09:35:34;;;;;;;2.42;0.80;;;17.30;99.90;;;;;;4964166;28;20054;-35
2023/09/25 09:38:04;;;;;;;3.25;0.73;;;17.30;99.90;;;;;;4981067;28;20050;-35
2023/09/25 09:40:30;;;;;;;2.35;0.60;;;17.40;99.90;;;;;;4981671;28;20460;-35
2023/09/25 09:42:56;;;;;;;2.78;0.65;;;17.40;99.90;;;;;;4983871;28;20381;-35
2023/09/25 09:45:22;;;;;;;5.07;1.00;;;17.50;99.90;;;;;;4980813;28;20510;-35
2023/09/25 09:47:50;;;;;;;1.90;0.75;;;17.50;99.90;;;;;;4981856;28;20057;-35
2023/09/25 09:50:22;;;;;;;1.38;0.60;;;17.50;99.90;;;;;;4984191;28;20109;-35
2023/09/25 09:52:48;;;;;;;3.33;0.98;;;17.60;99.90;;;;;;4982145;28;20050;-35
2023/09/25 09:55:15;;;;;;;1.73;0.73;;;17.60;99.90;;;;;;4983045;28;20054;-35
2023/09/25 09:57:42;;;;;;;2.28;1.00;;;17.60;99.90;;;;;;4983790;28;20088;-35
2023/09/25 10:00:08;;;;;;;1.52;0.65;;;17.70;99.90;;;;;;4986338;28;20527;-35
2023/09/25 10:02:35;;;;;;;4.93;0.90;;;17.70;99.90;;;;;;4964596;28;20403;-36
2023/09/25 10:05:03;;;;;;;2.58;0.85;;;17.80;99.90;;;;;;4986409;28;20065;-34
2023/09/25 10:07:29;;;;;;;3.03;0.80;;;17.90;99.90;;;;;;4980986;28;20125;-33
2023/09/25 10:09:56;;;;;;;2.10;0.63;;;18.00;99.90;;;;;;4983215;28;20133;-34
2023/09/25 10:12:50;;;;;;;2.22;0.82;;;18.20;99.90;;;;;;4967995;28;20046;-34
2023/09/25 10:15:24;;;;;;;1.63;0.60;;;18.30;99.90;;;;;;4983550;28;20129;-34
2023/09/25 10:17:49;;;;;;;2.15;0.98;;;18.30;99.90;;;;;;4979776;28;20062;-34
2023/09/25 10:20:30;;;;;;;2.03;0.60;;;18.40;99.90;;;;;;4980374;28;20061;-34
2023/09/25 10:23:21;;;;;;;1.63;0.80;;;18.30;99.90;;;;;;4977519;28;20477;-34
2023/09/25 10:25:46;;;;;;;4.88;0.75;;;18.30;99.90;;;;;;4978158;28;20046;-34
2023/09/25 10:28:38;;;;;;;2.25;0.73;;;18.30;99.90;;;;;;4977647;28;20065;-34
2023/09/25 10:31:18;;;;;;;2.55;0.73;;;18.40;99.90;;;;;;4980100;28;20052;-35
2023/09/25 10:33:54;;;;;;;1.48;0.65;;;18.50;99.90;;;;;;4985353;28;20047;-35
2023/09/25 10:36:20;;;;;;;2.22;0.77;;;18.50;99.90;;;;;;4953529;28;20084;-35
2023/09/25 10:38:52;;;;;;;4.35;0.75;;;18.60;99.90;;;;;;4984243;28;20587;-35
2023/09/25 10:41:22;;;;;;;3.65;0.70;;;18.60;99.90;;;;;;4978061;28;20146;-35
2023/09/25 10:43:48;;;;;;;3.28;0.70;;;18.70;99.90;;;;;;4983051;28;20535;-35
2023/09/25 10:46:14;;;;;;;1.95;0.82;;;18.80;99.90;;;;;;4981111;28;20054;-36
2023/09/25 10:48:39;;;;;;;2.15;0.80;;;18.80;99.90;;;;;;4980431;28;20050;-35
2023/09/25 10:51:06;;;;;;;1.70;0.70;;;18.90;99.90;;;;;;4981918;28;20050;-36
2023/09/25 10:53:33;;;;;;;3.05;0.75;;;18.90;99.90;;;;;;4983215;28;20190;-35
2023/09/25 10:55:58;;;;;;;5.22;0.80;;;18.90;99.90;;;;;;4983002;28;20611;-33
2023/09/25 10:58:25;;;;;;;2.22;1.30;;;19.00;99.90;;;;;;4983896;28;20129;-35
2023/09/25 11:00:51;;;;;;;1.77;0.75;;;19.00;99.90;;;;;;4984532;28;20058;-34
2023/09/25 11:03:16;;;;;;;2.28;0.80;;;19.10;99.90;;;;;;4981993;28;20419;-34
2023/09/25 11:05:43;;;;;;;2.35;0.90;;;19.20;99.90;;;;;;4982128;28;20060;-34
2023/09/25 11:08:15;;;;;;;1.95;0.70;;;19.30;99.90;;;;;;4983299;28;20074;-34
2023/09/25 11:10:41;;;;;;;2.53;0.85;;;19.40;99.90;;;;;;4980925;28;20054;-34
2023/09/25 11:13:07;;;;;;;3.38;0.70;;;19.50;99.90;;;;;;4982426;28;20503;-34
2023/09/25 11:15:40;;;;;;;2.47;1.13;;;19.50;99.90;;;;;;4982914;28;20405;-34
2023/09/25 11:18:08;;;;;;;1.92;0.73;;;19.60;99.90;;;;;;4979793;28;20497;-34
2023/09/25 11:20:34;;;;;;;2.63;0.88;;;19.80;99.90;;;;;;4976893;28;20451;-34
2023/09/25 11:23:10;;;;;;;2.97;0.70;;;19.80;99.90;;;;;;4981201;28;20058;-34
2023/09/25 11:25:46;;;;;;;1.80;0.70;;;19.90;99.90;;;;;;4980955;28;20108;-34
2023/09/25 11:28:17;;;;;;;3.30;0.90;;;19.90;99.90;;;;;;4980020;28;20074;-34
2023/09/25 11:30:46;;;;;;;2.10;0.70;;;20.00;99.90;;;;;;4982084;28;20056;-36
2023/09/25 11:33:15;;;;;;;3.17;0.80;;;20.10;99.90;;;;;;4997296;28;20504;-35
2023/09/25 11:35:40;;;;;;;3.30;0.90;;;20.20;99.90;;;;;;4998358;28;20054;-36
2023/09/25 11:38:11;;;;;;;2.28;0.77;;;20.20;99.90;;;;;;4979884;28;20049;-35
2023/09/25 11:40:38;;;;;;;3.83;0.80;;;20.20;99.90;;;;;;4979328;28;20407;-35
2023/09/25 11:43:04;;;;;;;3.70;0.82;;;20.20;99.90;;;;;;4979726;28;20534;-36
2023/09/25 11:45:30;;;;;;;1.90;0.80;;;20.30;99.90;;;;;;4982727;28;20054;-34
2023/09/25 11:47:56;;;;;;;1.73;0.75;;;20.30;99.90;;;;;;4981895;28;20502;-35
2023/09/25 11:50:22;;;;;;;1.65;0.80;;;20.30;99.90;;;;;;4994532;28;20077;-35
2023/09/25 11:52:48;;;;;;;2.53;0.95;;;20.40;99.90;;;;;;4986119;28;20130;-34
2023/09/25 11:55:17;;;;;;;2.08;0.88;;;20.50;99.90;;;;;;4984702;28;20042;-34
2023/09/25 11:57:44;;;;;;;3.00;0.80;;;20.70;99.90;;;;;;4983145;28;20492;-34
2023/09/25 12:00:11;;;;;;;1.40;0.52;;;20.80;99.90;;;;;;4979248;28;20090;-34
2023/09/25 12:02:37;;;;;;;2.85;0.82;;;20.90;99.90;;;;;;4982467;28;20527;-35
2023/09/25 12:05:06;;;;;;;2.60;0.70;;;21.10;99.90;;;;;;4983741;28;20054;-34
2023/09/25 12:07:36;;;;;;;2.63;0.80;;;21.20;99.90;;;;;;4988165;28;20137;-35
2023/09/25 12:10:08;;;;;;;6.63;0.95;;;21.30;99.90;;;;;;4985829;28;20663;-35
2023/09/25 12:12:35;;;;;;;2.97;1.08;;;21.30;99.90;;;;;;4986273;28;20520;-34
2023/09/25 12:15:03;;;;;;;2.47;0.90;;;21.30;99.90;;;;;;4987430;28;20500;-34
2023/09/25 12:17:30;;;;;;;2.78;0.80;;;21.50;99.90;;;;;;4987831;28;20046;-34
2023/09/25 12:20:06;;;;;;;3.90;0.85;;;21.50;99.90;;;;;;4989018;28;20130;-35
2023/09/25 12:22:32;;;;;;;1.85;0.75;;;21.50;99.90;;;;;;4984900;28;20183;-40
2023/09/25 12:24:58;;;;;;;4.13;0.63;;;21.50;99.90;;;;;;4986635;28;20054;-34
2023/09/25 12:27:23;;;;;;;2.88;0.90;;;21.40;99.90;;;;;;4980152;28;20437;-34
2023/09/25 12:29:49;;;;;;;2.33;0.98;;;21.30;99.90;;;;;;4986850;28;20688;-35
2023/09/25 12:32:14;;;;;;;2.75;0.90;;;21.30;99.90;;;;;;4984057;28;20508;-33
2023/09/25 12:34:40;;;;;;;2.05;0.82;;;21.30;99.90;;;;;;4985507;28;20054;-35
2023/09/25 12:37:06;;;;;;;4.10;0.90;;;21.20;99.90;;;;;;4985247;28;20476;-35
2023/09/25 12:39:34;;;;;;;2.58;0.80;;;21.10;99.90;;;;;;4980603;28;20042;-34
2023/09/25 12:41:59;;;;;;;3.20;0.75;;;21.00;99.90;;;;;;4986602;28;20491;-35
2023/09/25 12:44:25;;;;;;;2.92;0.70;;;21.10;99.90;;;;;;4985262;28;20039;-35
2023/09/25 12:46:51;;;;;;;3.83;0.70;;;21.10;99.90;;;;;;4985411;28;20050;-35